sensor_id;sensor_type;location;lat;lon;timestamp;P1;durP1;ratioP1;P2;durP2;ratioP2
6007;SDS011;3032;49.484;11.112;2022-08-21T00:00:58;27.63;;;17.90;;
6007;SDS011;3032;49.484;11.112;2022-08-21T00:03:27;23.45;;;16.92;;
6007;SDS011;3032;49.484;11.112;2022-08-21T00:05:52;25.33;;;18.40;;
6007;SDS011;3032;49.484;11.112;2022-08-21T00:08:19;26.20;;;17.77;;
6007;SDS011;3032;49.484;11.112;2022-08-21T00:10:45;19.52;;;15.48;;
6007;SDS011;3032;49.484;11.112;2022-08-21T00:13:11;25.00;;;17.98;;
6007;SDS011;3032;49.484;11.112;2022-08-21T00:15:37;19.20;;;15.63;;
6007;SDS011;3032;49.484;11.112;2022-08-21T00:18:05;25.83;;;18.55;;
6007;SDS011;3032;49.484;11.112;2022-08-21T00:20:32;24.23;;;16.17;;
6007;SDS011;3032;49.484;11.112;2022-08-21T00:22:58;24.67;;;17.52;;
6007;SDS011;3032;49.484;11.112;2022-08-21T00:25:24;20.70;;;15.67;;
6007;SDS011;3032;49.484;11.112;2022-08-21T00:27:50;16.57;;;12.87;;
6007;SDS011;3032;49.484;11.112;2022-08-21T00:30:17;24.23;;;17.23;;
6007;SDS011;3032;49.484;11.112;2022-08-21T00:32:43;20.42;;;14.85;;
6007;SDS011;3032;49.484;11.112;2022-08-21T00:35:15;18.92;;;14.52;;
6007;SDS011;3032;49.484;11.112;2022-08-21T00:37:42;19.73;;;15.48;;
6007;SDS011;3032;49.484;11.112;2022-08-21T00:40:10;20.60;;;15.07;;
6007;SDS011;3032;49.484;11.112;2022-08-21T00:42:41;17.25;;;13.90;;
6007;SDS011;3032;49.484;11.112;2022-08-21T00:45:09;23.02;;;15.18;;
6007;SDS011;3032;49.484;11.112;2022-08-21T00:47:34;21.30;;;14.80;;
6007;SDS011;3032;49.484;11.112;2022-08-21T00:50:00;27.53;;;16.20;;
6007;SDS011;3032;49.484;11.112;2022-08-21T00:52:28;21.08;;;15.70;;
6007;SDS011;3032;49.484;11.112;2022-08-21T00:54:57;19.73;;;15.10;;
6007;SDS011;3032;49.484;11.112;2022-08-21T00:57:25;18.38;;;14.50;;
6007;SDS011;3032;49.484;11.112;2022-08-21T00:59:57;20.10;;;15.60;;
6007;SDS011;3032;49.484;11.112;2022-08-21T01:02:24;18.70;;;14.60;;
6007;SDS011;3032;49.484;11.112;2022-08-21T01:04:50;19.13;;;14.73;;
6007;SDS011;3032;49.484;11.112;2022-08-21T01:07:16;18.47;;;12.90;;
6007;SDS011;3032;49.484;11.112;2022-08-21T01:09:42;21.17;;;16.20;;
6007;SDS011;3032;49.484;11.112;2022-08-21T01:12:09;18.40;;;13.82;;
6007;SDS011;3032;49.484;11.112;2022-08-21T01:14:35;13.57;;;11.98;;
6007;SDS011;3032;49.484;11.112;2022-08-21T01:17:01;14.83;;;11.70;;
6007;SDS011;3032;49.484;11.112;2022-08-21T01:19:28;14.13;;;11.40;;
6007;SDS011;3032;49.484;11.112;2022-08-21T01:21:54;22.95;;;15.43;;
6007;SDS011;3032;49.484;11.112;2022-08-21T01:24:20;14.90;;;13.30;;
6007;SDS011;3032;49.484;11.112;2022-08-21T01:26:46;15.38;;;12.38;;
6007;SDS011;3032;49.484;11.112;2022-08-21T01:32:06;11.60;;;10.30;;
6007;SDS011;3032;49.484;11.112;2022-08-21T01:34:37;10.48;;;9.48;;
6007;SDS011;3032;49.484;11.112;2022-08-21T01:37:04;12.85;;;10.90;;
6007;SDS011;3032;49.484;11.112;2022-08-21T01:39:30;10.90;;;9.30;;
6007;SDS011;3032;49.484;11.112;2022-08-21T01:41:57;12.40;;;10.25;;
6007;SDS011;3032;49.484;11.112;2022-08-21T01:44:22;11.77;;;10.67;;
6007;SDS011;3032;49.484;11.112;2022-08-21T01:46:48;10.23;;;9.30;;
6007;SDS011;3032;49.484;11.112;2022-08-21T01:49:14;13.98;;;10.88;;
6007;SDS011;3032;49.484;11.112;2022-08-21T01:51:40;12.40;;;10.88;;
6007;SDS011;3032;49.484;11.112;2022-08-21T01:54:06;11.10;;;10.02;;
6007;SDS011;3032;49.484;11.112;2022-08-21T01:56:37;11.87;;;10.67;;
6007;SDS011;3032;49.484;11.112;2022-08-21T01:59:05;12.32;;;11.07;;
6007;SDS011;3032;49.484;11.112;2022-08-21T02:01:30;15.53;;;12.63;;
6007;SDS011;3032;49.484;11.112;2022-08-21T02:03:56;9.47;;;8.57;;
6007;SDS011;3032;49.484;11.112;2022-08-21T02:06:22;11.90;;;10.60;;
6007;SDS011;3032;49.484;11.112;2022-08-21T02:08:47;11.97;;;10.30;;
6007;SDS011;3032;49.484;11.112;2022-08-21T02:11:15;13.75;;;10.65;;
6007;SDS011;3032;49.484;11.112;2022-08-21T02:13:41;11.67;;;10.23;;
6007;SDS011;3032;49.484;11.112;2022-08-21T02:16:06;12.67;;;10.43;;
6007;SDS011;3032;49.484;11.112;2022-08-21T02:18:33;12.40;;;11.10;;
6007;SDS011;3032;49.484;11.112;2022-08-21T02:20:58;12.18;;;10.95;;
6007;SDS011;3032;49.484;11.112;2022-08-21T02:23:24;10.60;;;9.53;;
6007;SDS011;3032;49.484;11.112;2022-08-21T02:25:50;11.60;;;10.50;;
6007;SDS011;3032;49.484;11.112;2022-08-21T02:28:16;11.13;;;9.93;;
6007;SDS011;3032;49.484;11.112;2022-08-21T02:30:42;10.80;;;9.60;;
6007;SDS011;3032;49.484;11.112;2022-08-21T02:33:10;10.50;;;9.50;;
6007;SDS011;3032;49.484;11.112;2022-08-21T02:35:37;10.57;;;9.57;;
6007;SDS011;3032;49.484;11.112;2022-08-21T02:38:05;10.23;;;9.32;;
6007;SDS011;3032;49.484;11.112;2022-08-21T02:40:36;9.98;;;8.52;;
6007;SDS011;3032;49.484;11.112;2022-08-21T02:43:04;8.32;;;7.63;;
6007;SDS011;3032;49.484;11.112;2022-08-21T02:45:31;10.07;;;9.27;;
6007;SDS011;3032;49.484;11.112;2022-08-21T02:47:58;10.77;;;9.55;;
6007;SDS011;3032;49.484;11.112;2022-08-21T02:50:27;7.78;;;7.18;;
6007;SDS011;3032;49.484;11.112;2022-08-21T02:52:55;10.20;;;8.88;;
6007;SDS011;3032;49.484;11.112;2022-08-21T02:55:26;10.73;;;9.70;;
6007;SDS011;3032;49.484;11.112;2022-08-21T02:57:53;10.18;;;8.27;;
6007;SDS011;3032;49.484;11.112;2022-08-21T03:00:20;10.15;;;9.00;;
6007;SDS011;3032;49.484;11.112;2022-08-21T03:02:47;12.13;;;9.32;;
6007;SDS011;3032;49.484;11.112;2022-08-21T03:05:14;10.70;;;9.70;;
6007;SDS011;3032;49.484;11.112;2022-08-21T03:07:41;9.85;;;8.93;;
6007;SDS011;3032;49.484;11.112;2022-08-21T03:10:08;9.00;;;8.20;;
6007;SDS011;3032;49.484;11.112;2022-08-21T03:12:34;10.47;;;9.00;;
6007;SDS011;3032;49.484;11.112;2022-08-21T03:15:04;9.02;;;8.13;;
6007;SDS011;3032;49.484;11.112;2022-08-21T03:17:31;8.75;;;7.60;;
6007;SDS011;3032;49.484;11.112;2022-08-21T03:19:57;8.57;;;7.75;;
6007;SDS011;3032;49.484;11.112;2022-08-21T03:22:23;7.90;;;7.10;;
6007;SDS011;3032;49.484;11.112;2022-08-21T03:24:49;7.13;;;6.43;;
6007;SDS011;3032;49.484;11.112;2022-08-21T03:27:14;9.10;;;8.20;;
6007;SDS011;3032;49.484;11.112;2022-08-21T03:29:40;10.27;;;8.77;;
6007;SDS011;3032;49.484;11.112;2022-08-21T03:32:06;11.43;;;9.60;;
6007;SDS011;3032;49.484;11.112;2022-08-21T03:34:34;10.27;;;9.25;;
6007;SDS011;3032;49.484;11.112;2022-08-21T03:37:00;9.13;;;8.23;;
6007;SDS011;3032;49.484;11.112;2022-08-21T03:39:27;10.48;;;9.48;;
6007;SDS011;3032;49.484;11.112;2022-08-21T03:41:52;11.30;;;7.50;;
6007;SDS011;3032;49.484;11.112;2022-08-21T03:44:19;8.93;;;7.95;;
6007;SDS011;3032;49.484;11.112;2022-08-21T03:46:44;9.63;;;8.73;;
6007;SDS011;3032;49.484;11.112;2022-08-21T03:49:10;8.43;;;7.67;;
6007;SDS011;3032;49.484;11.112;2022-08-21T03:51:35;9.53;;;8.57;;
6007;SDS011;3032;49.484;11.112;2022-08-21T03:54:02;10.20;;;8.82;;
6007;SDS011;3032;49.484;11.112;2022-08-21T03:56:28;8.25;;;7.25;;
6007;SDS011;3032;49.484;11.112;2022-08-21T03:58:54;16.20;;;11.67;;
6007;SDS011;3032;49.484;11.112;2022-08-21T04:01:19;33.33;;;14.10;;
6007;SDS011;3032;49.484;11.112;2022-08-21T04:03:45;10.83;;;9.70;;
6007;SDS011;3032;49.484;11.112;2022-08-21T04:06:10;24.93;;;9.97;;
6007;SDS011;3032;49.484;11.112;2022-08-21T04:08:36;13.67;;;10.50;;
6007;SDS011;3032;49.484;11.112;2022-08-21T04:11:02;11.55;;;10.20;;
6007;SDS011;3032;49.484;11.112;2022-08-21T04:13:29;9.05;;;7.82;;
6007;SDS011;3032;49.484;11.112;2022-08-21T04:15:55;9.87;;;8.87;;
6007;SDS011;3032;49.484;11.112;2022-08-21T04:18:23;12.48;;;9.82;;
6007;SDS011;3032;49.484;11.112;2022-08-21T04:20:50;12.03;;;8.20;;
6007;SDS011;3032;49.484;11.112;2022-08-21T04:23:21;11.68;;;9.18;;
6007;SDS011;3032;49.484;11.112;2022-08-21T04:25:47;9.80;;;8.93;;
6007;SDS011;3032;49.484;11.112;2022-08-21T04:28:12;8.53;;;7.73;;
6007;SDS011;3032;49.484;11.112;2022-08-21T04:30:38;8.23;;;7.23;;
6007;SDS011;3032;49.484;11.112;2022-08-21T04:33:04;7.53;;;6.90;;
6007;SDS011;3032;49.484;11.112;2022-08-21T04:35:30;9.63;;;8.63;;
6007;SDS011;3032;49.484;11.112;2022-08-21T04:37:56;8.10;;;7.35;;
6007;SDS011;3032;49.484;11.112;2022-08-21T04:40:23;8.03;;;7.37;;
6007;SDS011;3032;49.484;11.112;2022-08-21T04:42:51;8.60;;;7.80;;
6007;SDS011;3032;49.484;11.112;2022-08-21T04:45:24;15.77;;;10.85;;
6007;SDS011;3032;49.484;11.112;2022-08-21T04:47:56;17.85;;;10.98;;
6007;SDS011;3032;49.484;11.112;2022-08-21T04:50:47;19.17;;;10.70;;
6007;SDS011;3032;49.484;11.112;2022-08-21T04:53:20;16.42;;;9.70;;
6007;SDS011;3032;49.484;11.112;2022-08-21T04:55:50;19.52;;;10.68;;
6007;SDS011;3032;49.484;11.112;2022-08-21T04:58:19;29.33;;;14.05;;
6007;SDS011;3032;49.484;11.112;2022-08-21T05:00:46;32.40;;;14.25;;
6007;SDS011;3032;49.484;11.112;2022-08-21T05:03:13;66.30;;;18.38;;
6007;SDS011;3032;49.484;11.112;2022-08-21T05:05:40;56.60;;;17.58;;
6007;SDS011;3032;49.484;11.112;2022-08-21T05:08:06;67.20;;;17.70;;
6007;SDS011;3032;49.484;11.112;2022-08-21T05:10:34;152.05;;;29.08;;
6007;SDS011;3032;49.484;11.112;2022-08-21T05:13:00;39.55;;;16.25;;
6007;SDS011;3032;49.484;11.112;2022-08-21T05:15:26;227.83;;;30.33;;
6007;SDS011;3032;49.484;11.112;2022-08-21T05:17:52;346.73;;;33.37;;
6007;SDS011;3032;49.484;11.112;2022-08-21T05:20:17;237.17;;;28.83;;
6007;SDS011;3032;49.484;11.112;2022-08-21T05:22:44;253.88;;;30.63;;
6007;SDS011;3032;49.484;11.112;2022-08-21T05:25:10;316.07;;;34.70;;
6007;SDS011;3032;49.484;11.112;2022-08-21T05:27:36;360.20;;;39.15;;
6007;SDS011;3032;49.484;11.112;2022-08-21T05:30:03;279.35;;;27.67;;
6007;SDS011;3032;49.484;11.112;2022-08-21T05:32:32;353.48;;;36.03;;
6007;SDS011;3032;49.484;11.112;2022-08-21T05:34:58;301.23;;;40.47;;
6007;SDS011;3032;49.484;11.112;2022-08-21T05:37:23;411.63;;;38.03;;
6007;SDS011;3032;49.484;11.112;2022-08-21T05:39:49;164.20;;;20.50;;
6007;SDS011;3032;49.484;11.112;2022-08-21T05:42:15;474.77;;;41.07;;
6007;SDS011;3032;49.484;11.112;2022-08-21T05:44:41;200.15;;;23.60;;
6007;SDS011;3032;49.484;11.112;2022-08-21T05:47:08;77.18;;;15.70;;
6007;SDS011;3032;49.484;11.112;2022-08-21T05:49:35;323.05;;;35.80;;
6007;SDS011;3032;49.484;11.112;2022-08-21T05:52:02;93.82;;;14.70;;
6007;SDS011;3032;49.484;11.112;2022-08-21T05:54:28;113.97;;;13.38;;
6007;SDS011;3032;49.484;11.112;2022-08-21T05:56:54;117.45;;;12.75;;
6007;SDS011;3032;49.484;11.112;2022-08-21T05:59:20;240.00;;;23.80;;
6007;SDS011;3032;49.484;11.112;2022-08-21T06:01:46;658.27;;;61.30;;
6007;SDS011;3032;49.484;11.112;2022-08-21T06:04:12;272.60;;;28.27;;
6007;SDS011;3032;49.484;11.112;2022-08-21T06:06:38;247.80;;;24.08;;
6007;SDS011;3032;49.484;11.112;2022-08-21T06:09:04;207.53;;;25.50;;
6007;SDS011;3032;49.484;11.112;2022-08-21T06:11:30;395.73;;;29.63;;
6007;SDS011;3032;49.484;11.112;2022-08-21T06:13:57;229.10;;;22.75;;
6007;SDS011;3032;49.484;11.112;2022-08-21T06:16:24;597.60;;;50.10;;
6007;SDS011;3032;49.484;11.112;2022-08-21T06:18:51;261.63;;;26.88;;
6007;SDS011;3032;49.484;11.112;2022-08-21T06:21:17;186.70;;;19.80;;
6007;SDS011;3032;49.484;11.112;2022-08-21T06:23:43;67.90;;;13.18;;
6007;SDS011;3032;49.484;11.112;2022-08-21T06:26:09;324.90;;;32.07;;
6007;SDS011;3032;49.484;11.112;2022-08-21T06:28:37;173.32;;;25.45;;
6007;SDS011;3032;49.484;11.112;2022-08-21T06:33:39;177.38;;;22.80;;
6007;SDS011;3032;49.484;11.112;2022-08-21T06:36:05;319.17;;;33.10;;
6007;SDS011;3032;49.484;11.112;2022-08-21T06:38:31;184.37;;;24.23;;
6007;SDS011;3032;49.484;11.112;2022-08-21T06:40:56;126.43;;;20.53;;
6007;SDS011;3032;49.484;11.112;2022-08-21T06:43:22;68.63;;;20.23;;
6007;SDS011;3032;49.484;11.112;2022-08-21T06:45:48;106.00;;;20.43;;
6007;SDS011;3032;49.484;11.112;2022-08-21T06:48:13;51.13;;;14.10;;
6007;SDS011;3032;49.484;11.112;2022-08-21T06:50:39;115.97;;;21.33;;
6007;SDS011;3032;49.484;11.112;2022-08-21T06:53:09;350.15;;;32.63;;
6007;SDS011;3032;49.484;11.112;2022-08-21T06:55:38;213.52;;;26.65;;
6007;SDS011;3032;49.484;11.112;2022-08-21T06:58:05;86.90;;;18.45;;
6007;SDS011;3032;49.484;11.112;2022-08-21T07:00:31;33.67;;;17.38;;
6007;SDS011;3032;49.484;11.112;2022-08-21T07:02:57;30.70;;;17.45;;
6007;SDS011;3032;49.484;11.112;2022-08-21T07:05:27;40.17;;;14.93;;
6007;SDS011;3032;49.484;11.112;2022-08-21T07:07:54;35.60;;;13.40;;
6007;SDS011;3032;49.484;11.112;2022-08-21T07:10:21;35.65;;;15.63;;
6007;SDS011;3032;49.484;11.112;2022-08-21T07:12:48;23.20;;;12.30;;
6007;SDS011;3032;49.484;11.112;2022-08-21T07:15:15;22.17;;;12.60;;
6007;SDS011;3032;49.484;11.112;2022-08-21T07:17:40;54.77;;;18.00;;
6007;SDS011;3032;49.484;11.112;2022-08-21T07:20:06;32.30;;;19.60;;
6007;SDS011;3032;49.484;11.112;2022-08-21T07:22:32;34.28;;;18.90;;
6007;SDS011;3032;49.484;11.112;2022-08-21T07:25:00;29.85;;;17.80;;
6007;SDS011;3032;49.484;11.112;2022-08-21T07:27:25;23.07;;;14.83;;
6007;SDS011;3032;49.484;11.112;2022-08-21T07:29:51;29.30;;;15.60;;
6007;SDS011;3032;49.484;11.112;2022-08-21T07:32:17;33.27;;;16.80;;
6007;SDS011;3032;49.484;11.112;2022-08-21T07:34:42;17.80;;;15.70;;
6007;SDS011;3032;49.484;11.112;2022-08-21T07:37:08;42.90;;;16.33;;
6007;SDS011;3032;49.484;11.112;2022-08-21T07:39:34;17.83;;;13.50;;
6007;SDS011;3032;49.484;11.112;2022-08-21T07:41:59;14.57;;;13.00;;
6007;SDS011;3032;49.484;11.112;2022-08-21T07:44:25;18.40;;;14.97;;
6007;SDS011;3032;49.484;11.112;2022-08-21T07:46:50;17.87;;;14.70;;
6007;SDS011;3032;49.484;11.112;2022-08-21T07:49:16;22.93;;;14.57;;
6007;SDS011;3032;49.484;11.112;2022-08-21T07:51:41;15.93;;;14.10;;
6007;SDS011;3032;49.484;11.112;2022-08-21T07:54:07;24.80;;;17.63;;
6007;SDS011;3032;49.484;11.112;2022-08-21T07:56:33;15.35;;;13.73;;
6007;SDS011;3032;49.484;11.112;2022-08-21T07:58:59;17.20;;;15.50;;
6007;SDS011;3032;49.484;11.112;2022-08-21T08:01:25;19.30;;;17.20;;
6007;SDS011;3032;49.484;11.112;2022-08-21T08:03:50;22.80;;;16.60;;
6007;SDS011;3032;49.484;11.112;2022-08-21T08:06:17;18.23;;;16.33;;
6007;SDS011;3032;49.484;11.112;2022-08-21T08:08:44;18.60;;;16.73;;
6007;SDS011;3032;49.484;11.112;2022-08-21T08:11:10;18.67;;;16.77;;
6007;SDS011;3032;49.484;11.112;2022-08-21T08:13:40;21.58;;;19.27;;
6007;SDS011;3032;49.484;11.112;2022-08-21T08:16:08;18.95;;;16.95;;
6007;SDS011;3032;49.484;11.112;2022-08-21T08:18:34;19.10;;;17.10;;
6007;SDS011;3032;49.484;11.112;2022-08-21T08:20:59;20.00;;;18.00;;
6007;SDS011;3032;49.484;11.112;2022-08-21T08:23:25;18.13;;;16.20;;
6007;SDS011;3032;49.484;11.112;2022-08-21T08:25:52;22.25;;;19.45;;
6007;SDS011;3032;49.484;11.112;2022-08-21T08:28:17;19.57;;;17.50;;
6007;SDS011;3032;49.484;11.112;2022-08-21T08:30:44;21.37;;;19.07;;
6007;SDS011;3032;49.484;11.112;2022-08-21T08:33:10;25.83;;;20.45;;
6007;SDS011;3032;49.484;11.112;2022-08-21T08:35:36;21.95;;;19.73;;
6007;SDS011;3032;49.484;11.112;2022-08-21T08:38:02;25.20;;;22.60;;
6007;SDS011;3032;49.484;11.112;2022-08-21T08:40:31;26.60;;;22.47;;
6007;SDS011;3032;49.484;11.112;2022-08-21T08:43:02;26.35;;;23.00;;
6007;SDS011;3032;49.484;11.112;2022-08-21T08:45:30;24.85;;;21.35;;
6007;SDS011;3032;49.484;11.112;2022-08-21T08:48:03;21.35;;;19.00;;
6007;SDS011;3032;49.484;11.112;2022-08-21T08:53:22;23.38;;;20.98;;
6007;SDS011;3032;49.484;11.112;2022-08-21T08:55:51;18.95;;;16.80;;
6007;SDS011;3032;49.484;11.112;2022-08-21T08:58:23;16.92;;;15.23;;
6007;SDS011;3032;49.484;11.112;2022-08-21T09:00:52;18.70;;;16.90;;
6007;SDS011;3032;49.484;11.112;2022-08-21T09:03:20;20.73;;;18.55;;
6007;SDS011;3032;49.484;11.112;2022-08-21T09:05:49;20.80;;;18.65;;
6007;SDS011;3032;49.484;11.112;2022-08-21T09:11:03;19.42;;;17.63;;
6007;SDS011;3032;49.484;11.112;2022-08-21T09:16:31;21.35;;;19.05;;
6007;SDS011;3032;49.484;11.112;2022-08-21T09:19:28;17.92;;;16.23;;
6007;SDS011;3032;49.484;11.112;2022-08-21T09:22:17;22.60;;;19.45;;
6007;SDS011;3032;49.484;11.112;2022-08-21T09:27:48;19.75;;;17.90;;
6007;SDS011;3032;49.484;11.112;2022-08-21T09:30:15;19.50;;;17.60;;
6007;SDS011;3032;49.484;11.112;2022-08-21T09:32:42;19.38;;;17.52;;
6007;SDS011;3032;49.484;11.112;2022-08-21T09:40:27;18.83;;;17.02;;
6007;SDS011;3032;49.484;11.112;2022-08-21T09:42:58;16.85;;;15.27;;
6007;SDS011;3032;49.484;11.112;2022-08-21T09:45:26;22.65;;;17.77;;
6007;SDS011;3032;49.484;11.112;2022-08-21T09:47:52;19.50;;;17.60;;
6007;SDS011;3032;49.484;11.112;2022-08-21T09:50:22;17.77;;;16.17;;
6007;SDS011;3032;49.484;11.112;2022-08-21T09:52:52;16.75;;;15.25;;
6007;SDS011;3032;49.484;11.112;2022-08-21T09:55:29;15.27;;;13.88;;
6007;SDS011;3032;49.484;11.112;2022-08-21T09:58:17;16.27;;;14.80;;
6007;SDS011;3032;49.484;11.112;2022-08-21T10:00:45;16.27;;;14.75;;
6007;SDS011;3032;49.484;11.112;2022-08-21T10:03:21;14.95;;;13.60;;
6007;SDS011;3032;49.484;11.112;2022-08-21T10:06:06;14.60;;;13.30;;
6007;SDS011;3032;49.484;11.112;2022-08-21T10:08:36;14.20;;;13.00;;
6007;SDS011;3032;49.484;11.112;2022-08-21T10:11:07;14.60;;;13.40;;
6007;SDS011;3032;49.484;11.112;2022-08-21T10:13:39;14.80;;;13.50;;
6007;SDS011;3032;49.484;11.112;2022-08-21T10:19:26;14.35;;;13.25;;
6007;SDS011;3032;49.484;11.112;2022-08-21T10:21:59;11.57;;;10.70;;
6007;SDS011;3032;49.484;11.112;2022-08-21T10:24:55;11.68;;;10.80;;
6007;SDS011;3032;49.484;11.112;2022-08-21T10:36:19;13.05;;;12.02;;
6007;SDS011;3032;49.484;11.112;2022-08-21T10:42:13;13.45;;;12.45;;
6007;SDS011;3032;49.484;11.112;2022-08-21T10:44:30;10.88;;;10.00;;
6007;SDS011;3032;49.484;11.112;2022-08-21T10:47:08;10.15;;;9.07;;
6007;SDS011;3032;49.484;11.112;2022-08-21T10:55:43;7.95;;;7.45;;
6007;SDS011;3032;49.484;11.112;2022-08-21T10:58:21;8.23;;;7.72;;
6007;SDS011;3032;49.484;11.112;2022-08-21T11:00:53;7.22;;;6.72;;
6007;SDS011;3032;49.484;11.112;2022-08-21T11:03:31;6.85;;;6.45;;
6007;SDS011;3032;49.484;11.112;2022-08-21T11:06:25;6.13;;;5.82;;
6007;SDS011;3032;49.484;11.112;2022-08-21T11:08:51;5.40;;;5.10;;
6007;SDS011;3032;49.484;11.112;2022-08-21T11:14:21;5.22;;;5.00;;
6007;SDS011;3032;49.484;11.112;2022-08-21T11:17:07;5.70;;;5.40;;
6007;SDS011;3032;49.484;11.112;2022-08-21T11:19:36;6.20;;;5.90;;
6007;SDS011;3032;49.484;11.112;2022-08-21T11:27:34;4.78;;;4.57;;
6007;SDS011;3032;49.484;11.112;2022-08-21T11:30:07;5.65;;;5.25;;
6007;SDS011;3032;49.484;11.112;2022-08-21T11:32:44;5.30;;;4.83;;
6007;SDS011;3032;49.484;11.112;2022-08-21T11:35:48;4.50;;;4.30;;
6007;SDS011;3032;49.484;11.112;2022-08-21T11:41:25;4.10;;;4.00;;
6007;SDS011;3032;49.484;11.112;2022-08-21T11:54:58;3.93;;;3.80;;
6007;SDS011;3032;49.484;11.112;2022-08-21T11:57:27;3.83;;;3.63;;
6007;SDS011;3032;49.484;11.112;2022-08-21T12:00:11;4.10;;;3.78;;
6007;SDS011;3032;49.484;11.112;2022-08-21T12:02:51;4.40;;;4.20;;
6007;SDS011;3032;49.484;11.112;2022-08-21T12:05:36;4.30;;;4.10;;
6007;SDS011;3032;49.484;11.112;2022-08-21T12:08:09;4.38;;;4.18;;
6007;SDS011;3032;49.484;11.112;2022-08-21T12:10:40;5.43;;;5.03;;
6007;SDS011;3032;49.484;11.112;2022-08-21T12:13:32;5.60;;;5.22;;
6007;SDS011;3032;49.484;11.112;2022-08-21T12:16:06;5.18;;;4.88;;
6007;SDS011;3032;49.484;11.112;2022-08-21T12:18:32;4.85;;;4.45;;
6007;SDS011;3032;49.484;11.112;2022-08-21T12:20:59;5.70;;;5.30;;
6007;SDS011;3032;49.484;11.112;2022-08-21T12:23:33;4.80;;;4.60;;
6007;SDS011;3032;49.484;11.112;2022-08-21T12:27:19;3.90;;;3.70;;
6007;SDS011;3032;49.484;11.112;2022-08-21T12:29:15;4.93;;;4.53;;
6007;SDS011;3032;49.484;11.112;2022-08-21T12:31:52;4.20;;;4.00;;
6007;SDS011;3032;49.484;11.112;2022-08-21T12:34:24;3.88;;;3.78;;
6007;SDS011;3032;49.484;11.112;2022-08-21T12:39:57;4.63;;;4.20;;
6007;SDS011;3032;49.484;11.112;2022-08-21T12:44:58;4.30;;;4.10;;
6007;SDS011;3032;49.484;11.112;2022-08-21T12:47:33;3.90;;;3.70;;
6007;SDS011;3032;49.484;11.112;2022-08-21T12:50:11;3.60;;;3.40;;
6007;SDS011;3032;49.484;11.112;2022-08-21T12:52:45;3.75;;;3.60;;
6007;SDS011;3032;49.484;11.112;2022-08-21T12:55:31;3.90;;;3.63;;
6007;SDS011;3032;49.484;11.112;2022-08-21T12:57:58;3.90;;;3.70;;
6007;SDS011;3032;49.484;11.112;2022-08-21T13:00:24;4.05;;;3.85;;
6007;SDS011;3032;49.484;11.112;2022-08-21T13:02:52;3.50;;;3.40;;
6007;SDS011;3032;49.484;11.112;2022-08-21T13:05:28;3.45;;;3.35;;
6007;SDS011;3032;49.484;11.112;2022-08-21T13:07:58;3.55;;;3.33;;
6007;SDS011;3032;49.484;11.112;2022-08-21T13:10:29;4.07;;;3.20;;
6007;SDS011;3032;49.484;11.112;2022-08-21T13:12:57;3.00;;;2.90;;
6007;SDS011;3032;49.484;11.112;2022-08-21T13:15:27;3.30;;;3.10;;
6007;SDS011;3032;49.484;11.112;2022-08-21T13:17:55;3.75;;;3.65;;
6007;SDS011;3032;49.484;11.112;2022-08-21T13:20:34;5.28;;;3.85;;
6007;SDS011;3032;49.484;11.112;2022-08-21T13:23:03;3.72;;;3.55;;
6007;SDS011;3032;49.484;11.112;2022-08-21T13:25:38;3.20;;;3.10;;
6007;SDS011;3032;49.484;11.112;2022-08-21T13:28:05;3.40;;;3.20;;
6007;SDS011;3032;49.484;11.112;2022-08-21T13:30:34;3.75;;;3.55;;
6007;SDS011;3032;49.484;11.112;2022-08-21T13:33:04;3.55;;;3.35;;
6007;SDS011;3032;49.484;11.112;2022-08-21T13:38:27;3.58;;;3.40;;
6007;SDS011;3032;49.484;11.112;2022-08-21T13:40:56;3.55;;;3.35;;
6007;SDS011;3032;49.484;11.112;2022-08-21T13:43:28;2.78;;;2.58;;
6007;SDS011;3032;49.484;11.112;2022-08-21T13:45:56;2.63;;;2.53;;
6007;SDS011;3032;49.484;11.112;2022-08-21T13:48:24;3.28;;;3.08;;
6007;SDS011;3032;49.484;11.112;2022-08-21T13:50:52;3.00;;;2.90;;
6007;SDS011;3032;49.484;11.112;2022-08-21T13:55:46;2.88;;;2.78;;
6007;SDS011;3032;49.484;11.112;2022-08-21T13:58:12;2.60;;;2.50;;
6007;SDS011;3032;49.484;11.112;2022-08-21T14:00:53;2.97;;;2.88;;
6007;SDS011;3032;49.484;11.112;2022-08-21T14:03:29;2.95;;;2.85;;
6007;SDS011;3032;49.484;11.112;2022-08-21T14:06:02;3.03;;;2.92;;
6007;SDS011;3032;49.484;11.112;2022-08-21T14:08:37;2.55;;;2.45;;
6007;SDS011;3032;49.484;11.112;2022-08-21T14:11:05;2.55;;;2.35;;
6007;SDS011;3032;49.484;11.112;2022-08-21T14:16:25;2.80;;;2.60;;
6007;SDS011;3032;49.484;11.112;2022-08-21T14:19:04;3.10;;;3.00;;
6007;SDS011;3032;49.484;11.112;2022-08-21T14:21:52;3.00;;;2.90;;
6007;SDS011;3032;49.484;11.112;2022-08-21T14:29:17;2.72;;;2.63;;
6007;SDS011;3032;49.484;11.112;2022-08-21T14:31:52;2.92;;;2.83;;
6007;SDS011;3032;49.484;11.112;2022-08-21T14:34:26;3.00;;;2.90;;
6007;SDS011;3032;49.484;11.112;2022-08-21T14:36:53;2.70;;;2.60;;
6007;SDS011;3032;49.484;11.112;2022-08-21T14:39:20;2.60;;;2.50;;
6007;SDS011;3032;49.484;11.112;2022-08-21T14:41:46;3.40;;;3.30;;
6007;SDS011;3032;49.484;11.112;2022-08-21T14:44:14;2.80;;;2.70;;
6007;SDS011;3032;49.484;11.112;2022-08-21T14:46:41;3.35;;;3.15;;
6007;SDS011;3032;49.484;11.112;2022-08-21T14:49:07;3.27;;;3.17;;
6007;SDS011;3032;49.484;11.112;2022-08-21T14:51:32;3.00;;;2.80;;
6007;SDS011;3032;49.484;11.112;2022-08-21T14:53:58;3.20;;;3.00;;
6007;SDS011;3032;49.484;11.112;2022-08-21T14:56:24;2.90;;;2.80;;
6007;SDS011;3032;49.484;11.112;2022-08-21T14:58:50;2.70;;;2.60;;
6007;SDS011;3032;49.484;11.112;2022-08-21T15:01:18;2.85;;;2.70;;
6007;SDS011;3032;49.484;11.112;2022-08-21T15:03:46;3.00;;;2.90;;
6007;SDS011;3032;49.484;11.112;2022-08-21T15:06:13;3.22;;;2.95;;
6007;SDS011;3032;49.484;11.112;2022-08-21T15:08:39;3.58;;;3.38;;
6007;SDS011;3032;49.484;11.112;2022-08-21T15:11:05;3.17;;;3.03;;
6007;SDS011;3032;49.484;11.112;2022-08-21T15:13:32;3.42;;;3.10;;
6007;SDS011;3032;49.484;11.112;2022-08-21T15:15:58;3.30;;;3.20;;
6007;SDS011;3032;49.484;11.112;2022-08-21T15:18:24;4.40;;;3.30;;
6007;SDS011;3032;49.484;11.112;2022-08-21T15:20:52;3.40;;;3.20;;
6007;SDS011;3032;49.484;11.112;2022-08-21T15:23:18;3.50;;;3.20;;
6007;SDS011;3032;49.484;11.112;2022-08-21T15:25:44;3.30;;;3.10;;
6007;SDS011;3032;49.484;11.112;2022-08-21T15:28:12;3.10;;;2.90;;
6007;SDS011;3032;49.484;11.112;2022-08-21T15:30:39;3.30;;;3.00;;
6007;SDS011;3032;49.484;11.112;2022-08-21T15:33:06;3.95;;;3.65;;
6007;SDS011;3032;49.484;11.112;2022-08-21T15:35:32;3.95;;;3.40;;
6007;SDS011;3032;49.484;11.112;2022-08-21T15:37:59;3.60;;;3.40;;
6007;SDS011;3032;49.484;11.112;2022-08-21T15:40:24;3.60;;;3.30;;
6007;SDS011;3032;49.484;11.112;2022-08-21T15:42:52;3.35;;;3.25;;
6007;SDS011;3032;49.484;11.112;2022-08-21T15:45:23;3.50;;;3.30;;
6007;SDS011;3032;49.484;11.112;2022-08-21T15:47:49;3.37;;;3.20;;
6007;SDS011;3032;49.484;11.112;2022-08-21T15:50:15;3.35;;;3.15;;
6007;SDS011;3032;49.484;11.112;2022-08-21T15:52:42;3.20;;;3.00;;
6007;SDS011;3032;49.484;11.112;2022-08-21T15:55:08;3.73;;;3.37;;
6007;SDS011;3032;49.484;11.112;2022-08-21T15:57:34;4.30;;;4.00;;
6007;SDS011;3032;49.484;11.112;2022-08-21T16:00:06;3.90;;;3.70;;
6007;SDS011;3032;49.484;11.112;2022-08-21T16:02:38;4.45;;;4.15;;
6007;SDS011;3032;49.484;11.112;2022-08-21T16:05:09;4.45;;;3.40;;
6007;SDS011;3032;49.484;11.112;2022-08-21T16:07:36;3.40;;;3.20;;
6007;SDS011;3032;49.484;11.112;2022-08-21T16:10:03;3.60;;;3.40;;
6007;SDS011;3032;49.484;11.112;2022-08-21T16:12:30;4.32;;;4.03;;
6007;SDS011;3032;49.484;11.112;2022-08-21T16:14:58;3.58;;;3.05;;
6007;SDS011;3032;49.484;11.112;2022-08-21T16:17:27;3.40;;;3.20;;
6007;SDS011;3032;49.484;11.112;2022-08-21T16:19:56;3.45;;;3.20;;